sensor_id;sensor_type;location;lat;lon;timestamp;P1;durP1;ratioP1;P2;durP2;ratioP2
53072;SDS011;38955;48.916;2.336;2023-05-10T00:00:26;13.48;;;3.50;;
53072;SDS011;38955;48.916;2.336;2023-05-10T00:02:28;8.20;;;3.30;;
53072;SDS011;38955;48.916;2.336;2023-05-10T00:04:30;12.48;;;4.68;;
53072;SDS011;38955;48.916;2.336;2023-05-10T00:06:32;13.55;;;5.03;;
53072;SDS011;38955;48.916;2.336;2023-05-10T00:08:37;16.73;;;7.38;;
53072;SDS011;38955;48.916;2.336;2023-05-10T00:10:39;13.93;;;6.93;;
53072;SDS011;38955;48.916;2.336;2023-05-10T00:12:42;12.50;;;4.40;;
53072;SDS011;38955;48.916;2.336;2023-05-10T00:14:44;8.07;;;3.22;;
53072;SDS011;38955;48.916;2.336;2023-05-10T00:16:46;20.85;;;3.55;;
53072;SDS011;38955;48.916;2.336;2023-05-10T00:18:48;11.93;;;3.00;;
53072;SDS011;38955;48.916;2.336;2023-05-10T00:20:50;15.15;;;3.00;;
53072;SDS011;38955;48.916;2.336;2023-05-10T00:22:52;9.73;;;2.20;;
53072;SDS011;38955;48.916;2.336;2023-05-10T00:24:56;6.18;;;1.75;;
53072;SDS011;38955;48.916;2.336;2023-05-10T00:26:58;11.35;;;2.42;;
53072;SDS011;38955;48.916;2.336;2023-05-10T00:29:02;15.65;;;2.22;;
53072;SDS011;38955;48.916;2.336;2023-05-10T00:31:03;8.63;;;1.75;;
53072;SDS011;38955;48.916;2.336;2023-05-10T00:33:06;10.55;;;2.15;;
53072;SDS011;38955;48.916;2.336;2023-05-10T00:35:08;7.13;;;1.90;;
53072;SDS011;38955;48.916;2.336;2023-05-10T00:37:10;7.53;;;1.50;;
53072;SDS011;38955;48.916;2.336;2023-05-10T00:39:12;10.82;;;1.98;;
53072;SDS011;38955;48.916;2.336;2023-05-10T00:41:15;9.13;;;1.65;;
53072;SDS011;38955;48.916;2.336;2023-05-10T00:43:18;12.98;;;1.98;;
53072;SDS011;38955;48.916;2.336;2023-05-10T00:45:20;9.65;;;2.00;;
53072;SDS011;38955;48.916;2.336;2023-05-10T00:47:22;10.95;;;1.77;;
53072;SDS011;38955;48.916;2.336;2023-05-10T00:49:24;6.75;;;1.35;;
53072;SDS011;38955;48.916;2.336;2023-05-10T00:51:26;14.32;;;1.52;;
53072;SDS011;38955;48.916;2.336;2023-05-10T00:53:28;5.30;;;1.60;;
53072;SDS011;38955;48.916;2.336;2023-05-10T00:57:37;3.47;;;1.30;;
53072;SDS011;38955;48.916;2.336;2023-05-10T00:59:39;6.85;;;1.50;;
53072;SDS011;38955;48.916;2.336;2023-05-10T01:01:41;8.75;;;1.45;;
53072;SDS011;38955;48.916;2.336;2023-05-10T01:03:44;5.35;;;1.42;;
53072;SDS011;38955;48.916;2.336;2023-05-10T01:05:48;7.15;;;1.13;;
53072;SDS011;38955;48.916;2.336;2023-05-10T01:07:50;2.88;;;1.27;;
53072;SDS011;38955;48.916;2.336;2023-05-10T01:09:52;10.15;;;1.30;;
53072;SDS011;38955;48.916;2.336;2023-05-10T01:11:54;7.78;;;1.42;;
53072;SDS011;38955;48.916;2.336;2023-05-10T01:13:59;5.82;;;1.45;;
53072;SDS011;38955;48.916;2.336;2023-05-10T01:16:01;7.63;;;1.55;;
53072;SDS011;38955;48.916;2.336;2023-05-10T01:18:04;9.00;;;1.67;;
53072;SDS011;38955;48.916;2.336;2023-05-10T01:20:07;5.63;;;1.35;;
53072;SDS011;38955;48.916;2.336;2023-05-10T01:22:15;9.77;;;1.55;;
53072;SDS011;38955;48.916;2.336;2023-05-10T01:25:04;4.90;;;1.30;;
53072;SDS011;38955;48.916;2.336;2023-05-10T01:30:07;6.38;;;1.63;;
53072;SDS011;38955;48.916;2.336;2023-05-10T01:32:30;6.22;;;1.40;;
53072;SDS011;38955;48.916;2.336;2023-05-10T01:34:39;6.00;;;1.52;;
53072;SDS011;38955;48.916;2.336;2023-05-10T01:36:50;5.95;;;1.92;;
53072;SDS011;38955;48.916;2.336;2023-05-10T01:38:57;9.95;;;2.55;;
53072;SDS011;38955;48.916;2.336;2023-05-10T01:41:05;8.25;;;3.08;;
53072;SDS011;38955;48.916;2.336;2023-05-10T01:43:15;7.40;;;2.45;;
53072;SDS011;38955;48.916;2.336;2023-05-10T01:45:24;4.72;;;2.33;;
53072;SDS011;38955;48.916;2.336;2023-05-10T01:47:35;7.80;;;2.00;;
53072;SDS011;38955;48.916;2.336;2023-05-10T01:49:41;7.72;;;2.17;;
53072;SDS011;38955;48.916;2.336;2023-05-10T01:51:48;9.65;;;3.40;;
53072;SDS011;38955;48.916;2.336;2023-05-10T01:53:58;5.88;;;2.35;;
53072;SDS011;38955;48.916;2.336;2023-05-10T01:56:02;6.88;;;2.90;;
53072;SDS011;38955;48.916;2.336;2023-05-10T01:58:06;6.57;;;2.20;;
53072;SDS011;38955;48.916;2.336;2023-05-10T02:00:11;6.55;;;2.45;;
53072;SDS011;38955;48.916;2.336;2023-05-10T02:02:14;9.48;;;2.35;;
53072;SDS011;38955;48.916;2.336;2023-05-10T02:04:19;8.52;;;2.08;;
53072;SDS011;38955;48.916;2.336;2023-05-10T02:06:25;16.25;;;4.97;;
53072;SDS011;38955;48.916;2.336;2023-05-10T02:08:28;15.38;;;7.95;;
53072;SDS011;38955;48.916;2.336;2023-05-10T02:10:32;17.58;;;9.10;;
53072;SDS011;38955;48.916;2.336;2023-05-10T02:12:35;16.17;;;7.35;;
53072;SDS011;38955;48.916;2.336;2023-05-10T02:14:40;13.25;;;4.15;;
53072;SDS011;38955;48.916;2.336;2023-05-10T02:16:43;9.88;;;3.17;;
53072;SDS011;38955;48.916;2.336;2023-05-10T02:18:47;10.05;;;3.35;;
53072;SDS011;38955;48.916;2.336;2023-05-10T02:20:51;6.18;;;1.90;;
53072;SDS011;38955;48.916;2.336;2023-05-10T02:22:56;7.00;;;1.63;;
53072;SDS011;38955;48.916;2.336;2023-05-10T02:24:59;7.00;;;1.48;;
53072;SDS011;38955;48.916;2.336;2023-05-10T02:27:04;8.82;;;1.42;;
53072;SDS011;38955;48.916;2.336;2023-05-10T02:29:07;6.32;;;1.38;;
53072;SDS011;38955;48.916;2.336;2023-05-10T02:31:11;3.55;;;1.25;;
53072;SDS011;38955;48.916;2.336;2023-05-10T02:33:13;9.00;;;1.35;;
53072;SDS011;38955;48.916;2.336;2023-05-10T02:35:16;5.60;;;1.13;;
53072;SDS011;38955;48.916;2.336;2023-05-10T02:37:23;8.02;;;1.25;;
53072;SDS011;38955;48.916;2.336;2023-05-10T02:43:17;6.13;;;1.30;;
53072;SDS011;38955;48.916;2.336;2023-05-10T02:45:31;6.53;;;1.27;;
53072;SDS011;38955;48.916;2.336;2023-05-10T02:47:39;5.65;;;1.25;;
53072;SDS011;38955;48.916;2.336;2023-05-10T02:49:42;7.03;;;1.10;;
53072;SDS011;38955;48.916;2.336;2023-05-10T02:51:49;4.07;;;1.08;;
53072;SDS011;38955;48.916;2.336;2023-05-10T02:53:58;3.92;;;0.80;;
53072;SDS011;38955;48.916;2.336;2023-05-10T02:56:08;3.95;;;1.50;;
53072;SDS011;38955;48.916;2.336;2023-05-10T02:58:14;5.90;;;1.55;;
53072;SDS011;38955;48.916;2.336;2023-05-10T03:00:17;3.55;;;1.23;;
53072;SDS011;38955;48.916;2.336;2023-05-10T03:02:19;6.32;;;1.02;;
53072;SDS011;38955;48.916;2.336;2023-05-10T03:04:22;2.58;;;0.80;;
53072;SDS011;38955;48.916;2.336;2023-05-10T03:06:24;5.43;;;1.13;;
53072;SDS011;38955;48.916;2.336;2023-05-10T03:08:26;8.57;;;1.10;;
53072;SDS011;38955;48.916;2.336;2023-05-10T03:10:32;9.07;;;1.73;;
53072;SDS011;38955;48.916;2.336;2023-05-10T03:12:43;3.53;;;1.13;;
53072;SDS011;38955;48.916;2.336;2023-05-10T03:15:00;4.35;;;1.13;;
53072;SDS011;38955;48.916;2.336;2023-05-10T03:17:14;4.03;;;1.20;;
53072;SDS011;38955;48.916;2.336;2023-05-10T03:19:22;8.10;;;2.25;;
53072;SDS011;38955;48.916;2.336;2023-05-10T03:21:28;8.32;;;2.90;;
53072;SDS011;38955;48.916;2.336;2023-05-10T03:23:34;7.45;;;3.60;;
53072;SDS011;38955;48.916;2.336;2023-05-10T03:25:38;7.20;;;3.08;;
53072;SDS011;38955;48.916;2.336;2023-05-10T03:29:45;6.45;;;2.25;;
53072;SDS011;38955;48.916;2.336;2023-05-10T03:31:47;5.03;;;1.45;;
53072;SDS011;38955;48.916;2.336;2023-05-10T03:33:50;8.07;;;2.60;;
53072;SDS011;38955;48.916;2.336;2023-05-10T03:35:53;8.43;;;1.50;;
53072;SDS011;38955;48.916;2.336;2023-05-10T03:37:55;6.75;;;1.45;;
53072;SDS011;38955;48.916;2.336;2023-05-10T03:39:57;5.45;;;1.08;;
53072;SDS011;38955;48.916;2.336;2023-05-10T03:42:01;2.80;;;1.00;;
53072;SDS011;38955;48.916;2.336;2023-05-10T03:44:03;4.20;;;1.58;;
53072;SDS011;38955;48.916;2.336;2023-05-10T03:46:05;2.72;;;0.80;;
53072;SDS011;38955;48.916;2.336;2023-05-10T03:48:07;4.20;;;0.85;;
53072;SDS011;38955;48.916;2.336;2023-05-10T03:50:10;3.38;;;1.10;;
53072;SDS011;38955;48.916;2.336;2023-05-10T03:52:12;4.65;;;1.27;;
53072;SDS011;38955;48.916;2.336;2023-05-10T03:54:14;5.22;;;1.15;;
53072;SDS011;38955;48.916;2.336;2023-05-10T03:56:16;2.83;;;1.17;;
53072;SDS011;38955;48.916;2.336;2023-05-10T03:58:19;3.63;;;1.08;;
53072;SDS011;38955;48.916;2.336;2023-05-10T04:00:21;4.03;;;0.85;;
53072;SDS011;38955;48.916;2.336;2023-05-10T04:02:23;4.72;;;1.30;;
53072;SDS011;38955;48.916;2.336;2023-05-10T04:04:26;6.97;;;1.10;;
53072;SDS011;38955;48.916;2.336;2023-05-10T04:06:28;6.93;;;1.15;;
53072;SDS011;38955;48.916;2.336;2023-05-10T04:08:30;7.57;;;1.10;;
53072;SDS011;38955;48.916;2.336;2023-05-10T04:10:32;3.60;;;0.82;;
53072;SDS011;38955;48.916;2.336;2023-05-10T04:12:34;2.60;;;0.95;;
53072;SDS011;38955;48.916;2.336;2023-05-10T04:14:38;1.65;;;0.60;;
53072;SDS011;38955;48.916;2.336;2023-05-10T04:16:40;3.08;;;1.00;;
53072;SDS011;38955;48.916;2.336;2023-05-10T04:18:42;3.75;;;1.20;;
53072;SDS011;38955;48.916;2.336;2023-05-10T04:20:44;1.42;;;0.70;;
53072;SDS011;38955;48.916;2.336;2023-05-10T04:22:46;4.95;;;1.05;;
53072;SDS011;38955;48.916;2.336;2023-05-10T04:24:48;2.88;;;0.80;;
53072;SDS011;38955;48.916;2.336;2023-05-10T04:26:50;4.07;;;1.02;;
53072;SDS011;38955;48.916;2.336;2023-05-10T04:28:52;7.13;;;1.30;;
53072;SDS011;38955;48.916;2.336;2023-05-10T04:31:01;1.58;;;0.90;;
53072;SDS011;38955;48.916;2.336;2023-05-10T04:33:04;4.70;;;0.80;;
53072;SDS011;38955;48.916;2.336;2023-05-10T04:35:06;4.38;;;0.90;;
53072;SDS011;38955;48.916;2.336;2023-05-10T04:37:09;2.15;;;0.80;;
53072;SDS011;38955;48.916;2.336;2023-05-10T04:39:11;6.38;;;1.27;;
53072;SDS011;38955;48.916;2.336;2023-05-10T04:41:13;4.70;;;0.88;;
53072;SDS011;38955;48.916;2.336;2023-05-10T04:43:15;3.35;;;1.15;;
53072;SDS011;38955;48.916;2.336;2023-05-10T04:45:17;4.13;;;1.20;;
53072;SDS011;38955;48.916;2.336;2023-05-10T04:47:20;5.60;;;1.38;;
53072;SDS011;38955;48.916;2.336;2023-05-10T04:49:22;4.20;;;1.83;;
53072;SDS011;38955;48.916;2.336;2023-05-10T04:51:24;3.13;;;1.00;;
53072;SDS011;38955;48.916;2.336;2023-05-10T04:53:27;5.47;;;1.80;;
53072;SDS011;38955;48.916;2.336;2023-05-10T04:55:29;5.03;;;2.03;;
53072;SDS011;38955;48.916;2.336;2023-05-10T04:57:31;3.72;;;1.73;;
53072;SDS011;38955;48.916;2.336;2023-05-10T04:59:33;5.70;;;1.42;;
53072;SDS011;38955;48.916;2.336;2023-05-10T05:01:37;6.28;;;1.85;;
53072;SDS011;38955;48.916;2.336;2023-05-10T05:03:41;5.18;;;2.17;;
53072;SDS011;38955;48.916;2.336;2023-05-10T05:05:43;9.73;;;2.65;;
53072;SDS011;38955;48.916;2.336;2023-05-10T05:07:46;3.78;;;1.88;;
53072;SDS011;38955;48.916;2.336;2023-05-10T05:09:48;9.52;;;1.80;;
53072;SDS011;38955;48.916;2.336;2023-05-10T05:11:50;5.38;;;1.75;;
53072;SDS011;38955;48.916;2.336;2023-05-10T05:13:52;5.35;;;1.50;;
53072;SDS011;38955;48.916;2.336;2023-05-10T05:15:54;5.25;;;1.65;;
53072;SDS011;38955;48.916;2.336;2023-05-10T05:17:56;4.43;;;1.05;;
53072;SDS011;38955;48.916;2.336;2023-05-10T05:20:00;8.38;;;1.77;;
53072;SDS011;38955;48.916;2.336;2023-05-10T05:22:02;3.42;;;1.10;;
53072;SDS011;38955;48.916;2.336;2023-05-10T05:24:04;3.65;;;1.00;;
53072;SDS011;38955;48.916;2.336;2023-05-10T05:26:07;3.53;;;1.15;;
53072;SDS011;38955;48.916;2.336;2023-05-10T05:28:09;4.70;;;1.33;;
53072;SDS011;38955;48.916;2.336;2023-05-10T05:30:11;1.98;;;1.23;;
53072;SDS011;38955;48.916;2.336;2023-05-10T05:32:14;5.00;;;1.10;;
53072;SDS011;38955;48.916;2.336;2023-05-10T05:34:15;6.72;;;1.75;;
53072;SDS011;38955;48.916;2.336;2023-05-10T05:36:19;6.03;;;3.35;;
53072;SDS011;38955;48.916;2.336;2023-05-10T05:38:21;8.00;;;2.45;;
53072;SDS011;38955;48.916;2.336;2023-05-10T05:40:23;3.42;;;1.98;;
53072;SDS011;38955;48.916;2.336;2023-05-10T05:42:25;4.55;;;2.10;;
53072;SDS011;38955;48.916;2.336;2023-05-10T05:44:27;7.07;;;1.65;;
53072;SDS011;38955;48.916;2.336;2023-05-10T05:46:30;4.03;;;1.10;;
53072;SDS011;38955;48.916;2.336;2023-05-10T05:48:32;7.68;;;1.90;;
53072;SDS011;38955;48.916;2.336;2023-05-10T05:50:34;8.55;;;1.65;;
53072;SDS011;38955;48.916;2.336;2023-05-10T05:52:38;8.75;;;1.83;;
53072;SDS011;38955;48.916;2.336;2023-05-10T05:54:40;6.75;;;1.77;;
53072;SDS011;38955;48.916;2.336;2023-05-10T05:56:42;6.13;;;1.65;;
53072;SDS011;38955;48.916;2.336;2023-05-10T05:58:45;4.78;;;1.80;;
53072;SDS011;38955;48.916;2.336;2023-05-10T06:00:48;5.45;;;1.70;;
53072;SDS011;38955;48.916;2.336;2023-05-10T06:02:50;8.07;;;1.95;;
53072;SDS011;38955;48.916;2.336;2023-05-10T06:04:52;6.15;;;1.80;;
53072;SDS011;38955;48.916;2.336;2023-05-10T06:06:54;8.32;;;1.88;;
53072;SDS011;38955;48.916;2.336;2023-05-10T06:08:57;7.38;;;1.80;;
53072;SDS011;38955;48.916;2.336;2023-05-10T06:10:59;4.53;;;1.63;;
53072;SDS011;38955;48.916;2.336;2023-05-10T06:13:01;10.15;;;2.58;;
53072;SDS011;38955;48.916;2.336;2023-05-10T06:15:04;6.82;;;2.10;;
53072;SDS011;38955;48.916;2.336;2023-05-10T06:17:06;8.15;;;2.25;;
53072;SDS011;38955;48.916;2.336;2023-05-10T06:19:08;8.10;;;2.70;;
53072;SDS011;38955;48.916;2.336;2023-05-10T06:21:10;11.85;;;2.20;;
53072;SDS011;38955;48.916;2.336;2023-05-10T06:23:13;5.75;;;2.35;;
53072;SDS011;38955;48.916;2.336;2023-05-10T06:25:16;10.63;;;2.90;;
53072;SDS011;38955;48.916;2.336;2023-05-10T06:27:19;9.00;;;2.35;;
53072;SDS011;38955;48.916;2.336;2023-05-10T06:29:21;7.57;;;2.10;;
53072;SDS011;38955;48.916;2.336;2023-05-10T06:31:23;6.30;;;2.00;;
53072;SDS011;38955;48.916;2.336;2023-05-10T06:33:25;6.57;;;2.00;;
53072;SDS011;38955;48.916;2.336;2023-05-10T06:35:27;8.07;;;2.35;;
53072;SDS011;38955;48.916;2.336;2023-05-10T06:37:29;7.85;;;1.90;;
53072;SDS011;38955;48.916;2.336;2023-05-10T06:39:31;10.63;;;2.50;;
53072;SDS011;38955;48.916;2.336;2023-05-10T06:41:35;12.00;;;2.40;;
53072;SDS011;38955;48.916;2.336;2023-05-10T06:43:37;5.35;;;1.80;;
53072;SDS011;38955;48.916;2.336;2023-05-10T06:45:42;5.45;;;2.08;;
53072;SDS011;38955;48.916;2.336;2023-05-10T06:47:44;6.00;;;2.20;;
53072;SDS011;38955;48.916;2.336;2023-05-10T06:49:47;9.98;;;2.50;;
53072;SDS011;38955;48.916;2.336;2023-05-10T06:51:49;6.65;;;2.08;;
53072;SDS011;38955;48.916;2.336;2023-05-10T06:53:51;7.78;;;2.28;;
53072;SDS011;38955;48.916;2.336;2023-05-10T06:55:53;7.20;;;2.00;;
53072;SDS011;38955;48.916;2.336;2023-05-10T06:57:56;5.53;;;2.15;;
53072;SDS011;38955;48.916;2.336;2023-05-10T06:59:59;9.93;;;2.50;;
53072;SDS011;38955;48.916;2.336;2023-05-10T07:02:01;9.30;;;2.33;;
53072;SDS011;38955;48.916;2.336;2023-05-10T07:04:03;4.82;;;2.00;;
53072;SDS011;38955;48.916;2.336;2023-05-10T07:06:06;13.45;;;2.55;;
53072;SDS011;38955;48.916;2.336;2023-05-10T07:08:18;7.95;;;2.22;;
53072;SDS011;38955;48.916;2.336;2023-05-10T07:10:20;9.20;;;2.42;;
53072;SDS011;38955;48.916;2.336;2023-05-10T07:12:23;9.00;;;2.47;;
53072;SDS011;38955;48.916;2.336;2023-05-10T07:14:26;5.50;;;2.17;;
53072;SDS011;38955;48.916;2.336;2023-05-10T07:16:28;12.40;;;2.70;;
53072;SDS011;38955;48.916;2.336;2023-05-10T07:18:30;9.90;;;2.80;;
53072;SDS011;38955;48.916;2.336;2023-05-10T07:20:32;12.93;;;2.58;;
53072;SDS011;38955;48.916;2.336;2023-05-10T07:22:34;10.60;;;3.55;;
53072;SDS011;38955;48.916;2.336;2023-05-10T07:24:37;10.98;;;2.70;;
53072;SDS011;38955;48.916;2.336;2023-05-10T07:26:39;9.00;;;3.42;;
53072;SDS011;38955;48.916;2.336;2023-05-10T07:28:41;7.65;;;2.75;;
53072;SDS011;38955;48.916;2.336;2023-05-10T07:30:44;6.47;;;2.63;;
53072;SDS011;38955;48.916;2.336;2023-05-10T07:32:47;7.40;;;3.22;;
53072;SDS011;38955;48.916;2.336;2023-05-10T07:34:49;8.70;;;3.72;;
53072;SDS011;38955;48.916;2.336;2023-05-10T07:36:51;14.32;;;4.00;;
53072;SDS011;38955;48.916;2.336;2023-05-10T07:38:53;10.77;;;3.15;;
53072;SDS011;38955;48.916;2.336;2023-05-10T07:40:55;6.75;;;3.45;;
53072;SDS011;38955;48.916;2.336;2023-05-10T07:42:58;9.52;;;3.63;;
53072;SDS011;38955;48.916;2.336;2023-05-10T07:45:01;9.15;;;4.25;;
53072;SDS011;38955;48.916;2.336;2023-05-10T07:47:04;11.88;;;4.00;;
53072;SDS011;38955;48.916;2.336;2023-05-10T07:49:06;9.45;;;3.13;;
53072;SDS011;38955;48.916;2.336;2023-05-10T07:51:08;11.13;;;3.90;;
53072;SDS011;38955;48.916;2.336;2023-05-10T07:53:10;11.05;;;3.28;;
53072;SDS011;38955;48.916;2.336;2023-05-10T07:55:12;11.18;;;3.78;;
53072;SDS011;38955;48.916;2.336;2023-05-10T07:57:15;10.27;;;2.95;;
53072;SDS011;38955;48.916;2.336;2023-05-10T07:59:19;8.32;;;2.53;;
53072;SDS011;38955;48.916;2.336;2023-05-10T08:01:21;8.57;;;3.70;;
53072;SDS011;38955;48.916;2.336;2023-05-10T08:03:25;9.38;;;3.50;;
53072;SDS011;38955;48.916;2.336;2023-05-10T08:05:27;7.07;;;2.70;;
53072;SDS011;38955;48.916;2.336;2023-05-10T08:07:29;6.88;;;3.20;;
53072;SDS011;38955;48.916;2.336;2023-05-10T08:09:31;6.68;;;3.15;;
53072;SDS011;38955;48.916;2.336;2023-05-10T08:11:33;9.60;;;3.03;;
53072;SDS011;38955;48.916;2.336;2023-05-10T08:13:35;4.40;;;2.30;;
53072;SDS011;38955;48.916;2.336;2023-05-10T08:15:38;9.45;;;3.53;;
53072;SDS011;38955;48.916;2.336;2023-05-10T08:17:40;10.65;;;3.22;;
53072;SDS011;38955;48.916;2.336;2023-05-10T08:19:43;15.23;;;3.05;;
53072;SDS011;38955;48.916;2.336;2023-05-10T08:21:45;10.85;;;4.13;;
53072;SDS011;38955;48.916;2.336;2023-05-10T08:23:47;14.80;;;4.20;;
53072;SDS011;38955;48.916;2.336;2023-05-10T08:25:50;10.32;;;3.80;;
53072;SDS011;38955;48.916;2.336;2023-05-10T08:27:52;10.93;;;3.28;;
53072;SDS011;38955;48.916;2.336;2023-05-10T08:29:54;9.32;;;4.18;;
53072;SDS011;38955;48.916;2.336;2023-05-10T08:31:56;9.93;;;4.03;;
53072;SDS011;38955;48.916;2.336;2023-05-10T08:33:58;10.63;;;4.25;;
53072;SDS011;38955;48.916;2.336;2023-05-10T08:36:03;8.98;;;4.28;;
53072;SDS011;38955;48.916;2.336;2023-05-10T08:38:05;12.27;;;4.30;;
53072;SDS011;38955;48.916;2.336;2023-05-10T08:40:08;9.27;;;4.28;;
53072;SDS011;38955;48.916;2.336;2023-05-10T08:42:13;10.68;;;3.85;;
53072;SDS011;38955;48.916;2.336;2023-05-10T08:44:21;7.35;;;3.60;;
53072;SDS011;38955;48.916;2.336;2023-05-10T08:46:25;11.02;;;3.65;;
53072;SDS011;38955;48.916;2.336;2023-05-10T08:48:29;12.35;;;4.15;;
53072;SDS011;38955;48.916;2.336;2023-05-10T08:52:38;10.43;;;4.03;;
53072;SDS011;38955;48.916;2.336;2023-05-10T08:54:42;14.05;;;4.68;;
53072;SDS011;38955;48.916;2.336;2023-05-10T08:56:45;13.10;;;5.05;;
53072;SDS011;38955;48.916;2.336;2023-05-10T09:00:52;13.35;;;4.72;;
53072;SDS011;38955;48.916;2.336;2023-05-10T09:02:54;12.55;;;4.57;;
53072;SDS011;38955;48.916;2.336;2023-05-10T09:04:58;17.98;;;4.68;;
53072;SDS011;38955;48.916;2.336;2023-05-10T09:07:00;10.82;;;4.00;;
53072;SDS011;38955;48.916;2.336;2023-05-10T09:09:03;14.73;;;4.38;;
53072;SDS011;38955;48.916;2.336;2023-05-10T09:11:06;10.30;;;4.47;;
53072;SDS011;38955;48.916;2.336;2023-05-10T09:13:09;14.57;;;4.95;;
53072;SDS011;38955;48.916;2.336;2023-05-10T09:15:13;12.90;;;4.25;;
53072;SDS011;38955;48.916;2.336;2023-05-10T09:17:17;14.02;;;5.00;;
53072;SDS011;38955;48.916;2.336;2023-05-10T09:19:19;15.20;;;5.63;;
53072;SDS011;38955;48.916;2.336;2023-05-10T09:21:21;15.05;;;4.35;;
53072;SDS011;38955;48.916;2.336;2023-05-10T09:23:23;14.82;;;4.97;;
53072;SDS011;38955;48.916;2.336;2023-05-10T09:25:34;13.48;;;5.40;;
53072;SDS011;38955;48.916;2.336;2023-05-10T09:27:37;13.38;;;4.88;;
53072;SDS011;38955;48.916;2.336;2023-05-10T09:29:40;12.55;;;4.38;;
53072;SDS011;38955;48.916;2.336;2023-05-10T09:31:43;11.15;;;4.28;;
53072;SDS011;38955;48.916;2.336;2023-05-10T09:33:48;14.20;;;5.15;;
53072;SDS011;38955;48.916;2.336;2023-05-10T09:35:51;14.05;;;4.72;;
53072;SDS011;38955;48.916;2.336;2023-05-10T09:37:54;14.82;;;5.65;;
53072;SDS011;38955;48.916;2.336;2023-05-10T09:39:57;14.45;;;4.35;;
53072;SDS011;38955;48.916;2.336;2023-05-10T09:42:01;14.85;;;5.20;;
53072;SDS011;38955;48.916;2.336;2023-05-10T09:44:05;12.82;;;4.75;;
53072;SDS011;38955;48.916;2.336;2023-05-10T09:46:09;19.45;;;6.20;;
53072;SDS011;38955;48.916;2.336;2023-05-10T09:48:12;15.88;;;5.35;;
53072;SDS011;38955;48.916;2.336;2023-05-10T09:50:14;17.83;;;5.25;;
53072;SDS011;38955;48.916;2.336;2023-05-10T09:52:17;14.75;;;5.00;;
53072;SDS011;38955;48.916;2.336;2023-05-10T09:54:19;17.38;;;5.80;;
53072;SDS011;38955;48.916;2.336;2023-05-10T09:56:33;21.02;;;5.18;;
53072;SDS011;38955;48.916;2.336;2023-05-10T09:58:41;17.10;;;5.07;;
53072;SDS011;38955;48.916;2.336;2023-05-10T10:00:44;15.23;;;5.63;;
53072;SDS011;38955;48.916;2.336;2023-05-10T10:02:54;19.95;;;5.40;;
53072;SDS011;38955;48.916;2.336;2023-05-10T10:04:57;17.00;;;5.15;;
53072;SDS011;38955;48.916;2.336;2023-05-10T10:07:01;20.73;;;5.78;;
53072;SDS011;38955;48.916;2.336;2023-05-10T10:09:04;19.58;;;5.05;;
53072;SDS011;38955;48.916;2.336;2023-05-10T10:11:07;16.75;;;5.97;;
53072;SDS011;38955;48.916;2.336;2023-05-10T10:13:09;15.68;;;5.00;;
53072;SDS011;38955;48.916;2.336;2023-05-10T10:15:13;18.15;;;5.70;;
53072;SDS011;38955;48.916;2.336;2023-05-10T10:17:17;29.30;;;8.52;;
53072;SDS011;38955;48.916;2.336;2023-05-10T10:19:21;21.48;;;5.65;;
53072;SDS011;38955;48.916;2.336;2023-05-10T10:21:23;23.83;;;6.00;;
53072;SDS011;38955;48.916;2.336;2023-05-10T10:23:26;17.30;;;4.97;;
53072;SDS011;38955;48.916;2.336;2023-05-10T10:25:29;20.38;;;5.32;;
53072;SDS011;38955;48.916;2.336;2023-05-10T10:27:33;18.83;;;5.85;;
53072;SDS011;38955;48.916;2.336;2023-05-10T10:29:50;20.98;;;5.82;;
53072;SDS011;38955;48.916;2.336;2023-05-10T10:32:06;16.52;;;4.47;;
53072;SDS011;38955;48.916;2.336;2023-05-10T10:34:21;16.52;;;5.57;;
53072;SDS011;38955;48.916;2.336;2023-05-10T10:36:28;19.83;;;4.97;;
53072;SDS011;38955;48.916;2.336;2023-05-10T10:41:02;21.90;;;5.80;;
53072;SDS011;38955;48.916;2.336;2023-05-10T10:45:25;20.58;;;6.13;;
53072;SDS011;38955;48.916;2.336;2023-05-10T10:47:29;16.92;;;4.95;;
53072;SDS011;38955;48.916;2.336;2023-05-10T10:49:37;22.08;;;5.70;;
53072;SDS011;38955;48.916;2.336;2023-05-10T10:52:12;22.83;;;6.35;;
53072;SDS011;38955;48.916;2.336;2023-05-10T10:54:21;20.92;;;5.65;;
53072;SDS011;38955;48.916;2.336;2023-05-10T10:56:29;21.67;;;5.70;;
53072;SDS011;38955;48.916;2.336;2023-05-10T10:58:31;19.85;;;5.88;;
53072;SDS011;38955;48.916;2.336;2023-05-10T11:00:35;17.33;;;5.00;;
53072;SDS011;38955;48.916;2.336;2023-05-10T11:02:46;19.17;;;5.60;;
53072;SDS011;38955;48.916;2.336;2023-05-10T11:04:50;21.15;;;6.00;;
53072;SDS011;38955;48.916;2.336;2023-05-10T11:06:52;16.67;;;5.50;;
53072;SDS011;38955;48.916;2.336;2023-05-10T11:09:17;20.00;;;5.35;;
53072;SDS011;38955;48.916;2.336;2023-05-10T11:11:19;21.80;;;5.63;;
53072;SDS011;38955;48.916;2.336;2023-05-10T11:13:28;17.55;;;5.35;;
53072;SDS011;38955;48.916;2.336;2023-05-10T11:15:31;19.70;;;5.85;;
53072;SDS011;38955;48.916;2.336;2023-05-10T11:17:34;21.23;;;5.35;;
53072;SDS011;38955;48.916;2.336;2023-05-10T11:19:37;17.60;;;5.55;;
53072;SDS011;38955;48.916;2.336;2023-05-10T11:22:13;15.40;;;5.45;;
53072;SDS011;38955;48.916;2.336;2023-05-10T11:24:16;18.77;;;5.53;;
53072;SDS011;38955;48.916;2.336;2023-05-10T11:26:21;14.02;;;5.28;;
53072;SDS011;38955;48.916;2.336;2023-05-10T11:28:26;22.38;;;5.40;;
53072;SDS011;38955;48.916;2.336;2023-05-10T11:30:29;19.20;;;5.90;;
53072;SDS011;38955;48.916;2.336;2023-05-10T11:32:32;22.40;;;6.25;;
53072;SDS011;38955;48.916;2.336;2023-05-10T11:34:34;25.88;;;6.07;;
53072;SDS011;38955;48.916;2.336;2023-05-10T11:36:38;20.00;;;5.47;;
53072;SDS011;38955;48.916;2.336;2023-05-10T11:38:40;22.85;;;5.30;;
53072;SDS011;38955;48.916;2.336;2023-05-10T11:40:42;16.27;;;4.97;;
53072;SDS011;38955;48.916;2.336;2023-05-10T11:42:45;20.35;;;6.35;;
53072;SDS011;38955;48.916;2.336;2023-05-10T11:44:47;17.30;;;4.60;;
53072;SDS011;38955;48.916;2.336;2023-05-10T11:46:49;19.88;;;4.85;;
53072;SDS011;38955;48.916;2.336;2023-05-10T11:48:52;18.63;;;4.90;;
53072;SDS011;38955;48.916;2.336;2023-05-10T11:50:56;21.20;;;4.72;;
53072;SDS011;38955;48.916;2.336;2023-05-10T11:53:03;19.88;;;4.90;;
53072;SDS011;38955;48.916;2.336;2023-05-10T11:55:05;28.67;;;6.32;;
53072;SDS011;38955;48.916;2.336;2023-05-10T11:57:08;33.53;;;6.32;;
53072;SDS011;38955;48.916;2.336;2023-05-10T11:59:10;23.83;;;5.03;;
53072;SDS011;38955;48.916;2.336;2023-05-10T12:01:12;14.15;;;3.67;;
53072;SDS011;38955;48.916;2.336;2023-05-10T12:03:14;17.02;;;3.95;;
53072;SDS011;38955;48.916;2.336;2023-05-10T12:05:16;13.93;;;3.90;;
53072;SDS011;38955;48.916;2.336;2023-05-10T12:07:19;14.38;;;4.00;;
53072;SDS011;38955;48.916;2.336;2023-05-10T12:09:22;15.48;;;3.92;;
53072;SDS011;38955;48.916;2.336;2023-05-10T12:11:28;15.13;;;3.88;;
53072;SDS011;38955;48.916;2.336;2023-05-10T12:13:31;13.88;;;3.85;;
53072;SDS011;38955;48.916;2.336;2023-05-10T12:15:33;13.65;;;3.80;;
53072;SDS011;38955;48.916;2.336;2023-05-10T12:17:36;17.10;;;4.75;;
53072;SDS011;38955;48.916;2.336;2023-05-10T12:19:40;13.25;;;4.15;;
53072;SDS011;38955;48.916;2.336;2023-05-10T12:21:42;15.55;;;4.60;;
53072;SDS011;38955;48.916;2.336;2023-05-10T12:23:45;20.60;;;4.28;;
53072;SDS011;38955;48.916;2.336;2023-05-10T12:25:49;23.27;;;4.88;;
53072;SDS011;38955;48.916;2.336;2023-05-10T12:27:53;10.77;;;3.35;;
53072;SDS011;38955;48.916;2.336;2023-05-10T12:29:58;14.77;;;3.60;;
53072;SDS011;38955;48.916;2.336;2023-05-10T12:32:00;11.90;;;3.60;;
53072;SDS011;38955;48.916;2.336;2023-05-10T12:34:03;17.67;;;4.55;;
53072;SDS011;38955;48.916;2.336;2023-05-10T12:36:06;14.57;;;4.82;;
53072;SDS011;38955;48.916;2.336;2023-05-10T12:38:22;18.15;;;5.18;;
53072;SDS011;38955;48.916;2.336;2023-05-10T12:40:26;12.63;;;3.67;;